Time;durP1;ratioP1;P1;durP2;ratioP2;P2;SDS_P1;SDS_P2;PMS_P1;PMS_P2;Temp;Humidity;BMP_temperature;BMP_pressure;BME280_temperature;BME280_humidity;BME280_pressure;Samples;Min_cycle;Max_cycle;Signal;HPM_P1;HPM_P2
2020/12/31 00:01:04;;;;;;;2.90;1.70;;;21.90;51.20;;;;;;5094296;28;20173;-69
2020/12/31 00:03:29;;;;;;;1.97;1.73;;;21.90;51.20;;;;;;5094305;28;20436;-69
2020/12/31 00:05:55;;;;;;;1.73;1.10;;;21.90;51.20;;;;;;5094392;28;20419;-70
2020/12/31 00:08:21;;;;;;;1.90;1.50;;;21.80;51.10;;;;;;5094137;28;20191;-69
2020/12/31 00:10:46;;;;;;;1.47;1.23;;;21.80;51.10;;;;;;5094117;28;20188;-69
2020/12/31 00:13:12;;;;;;;1.90;1.40;;;21.80;51.20;;;;;;5093853;28;20644;-68
2020/12/31 00:15:38;;;;;;;1.90;1.40;;;21.80;51.20;;;;;;5093966;28;20190;-69
2020/12/31 00:18:04;;;;;;;1.50;1.40;;;21.80;51.20;;;;;;5093906;28;20182;-69
2020/12/31 00:20:30;;;;;;;1.43;1.20;;;21.80;51.30;;;;;;5094272;28;20246;-70
2020/12/31 00:22:55;;;;;;;1.87;1.43;;;21.80;51.30;;;;;;5094632;28;20511;-69
2020/12/31 00:25:21;;;;;;;2.40;1.50;;;21.80;51.30;;;;;;5094158;28;20495;-69
2020/12/31 00:27:47;;;;;;;2.50;1.30;;;21.80;51.30;;;;;;5093892;28;20276;-69
2020/12/31 00:30:19;;;;;;;2.10;1.50;;;21.70;51.20;;;;;;5093817;28;20146;-69
2020/12/31 00:32:45;;;;;;;1.97;1.40;;;21.80;51.30;;;;;;5094058;28;20150;-69
2020/12/31 00:35:11;;;;;;;2.50;1.20;;;21.70;51.30;;;;;;5093840;28;20459;-69
2020/12/31 00:37:37;;;;;;;1.70;1.47;;;21.70;51.90;;;;;;5093632;28;20953;-69
2020/12/31 00:40:04;;;;;;;1.57;1.37;;;21.70;51.40;;;;;;5093856;28;20404;-69
2020/12/31 00:42:30;;;;;;;1.80;1.30;;;21.70;51.40;;;;;;5093745;28;20226;-69
2020/12/31 00:44:55;;;;;;;1.43;1.20;;;21.70;51.40;;;;;;5093804;28;20404;-69
2020/12/31 00:47:21;;;;;;;3.30;2.00;;;21.70;51.50;;;;;;5093513;28;20189;-69
2020/12/31 00:49:46;;;;;;;2.37;1.33;;;21.70;51.50;;;;;;5093389;28;20185;-69
2020/12/31 00:52:12;;;;;;;1.10;1.00;;;21.70;51.50;;;;;;5093429;28;20169;-69
2020/12/31 00:54:38;;;;;;;1.63;1.40;;;21.60;51.40;;;;;;5093103;28;20181;-69
2020/12/31 00:57:03;;;;;;;1.67;1.33;;;21.60;51.40;;;;;;5093602;28;20234;-69
2020/12/31 00:59:29;;;;;;;2.37;1.00;;;21.70;51.50;;;;;;5093873;28;20247;-69
2020/12/31 01:01:54;;;;;;;1.80;1.30;;;21.70;52.10;;;;;;5093295;28;20158;-69
2020/12/31 01:04:20;;;;;;;1.43;1.33;;;21.60;51.40;;;;;;5093322;28;20166;-70
2020/12/31 01:06:45;;;;;;;1.40;1.20;;;21.60;51.50;;;;;;5093089;28;20643;-69
2020/12/31 01:09:11;;;;;;;1.93;1.07;;;21.60;51.50;;;;;;5093730;28;20180;-69
2020/12/31 01:11:39;;;;;;;1.63;1.50;;;21.60;51.50;;;;;;5093238;28;20547;-69
2020/12/31 01:14:05;;;;;;;1.53;1.17;;;21.60;51.50;;;;;;5093162;28;20182;-69
2020/12/31 01:16:31;;;;;;;1.40;1.17;;;21.60;51.50;;;;;;5092979;28;20494;-69
2020/12/31 01:18:56;;;;;;;1.40;1.10;;;21.60;51.50;;;;;;5093096;28;20439;-69
2020/12/31 01:21:22;;;;;;;1.93;1.47;;;21.60;51.50;;;;;;5093086;28;20408;-69
2020/12/31 01:23:47;;;;;;;1.97;1.20;;;21.60;51.50;;;;;;5093089;28;20588;-69
2020/12/31 01:26:13;;;;;;;1.47;1.10;;;21.60;51.50;;;;;;5091660;28;20197;-69
2020/12/31 01:28:39;;;;;;;1.60;1.23;;;21.60;51.60;;;;;;5092929;28;20293;-69
2020/12/31 01:31:08;;;;;;;1.83;1.30;;;21.60;51.60;;;;;;5093269;28;20261;-69
2020/12/31 01:33:35;;;;;;;1.93;1.40;;;21.60;51.60;;;;;;5093044;28;20941;-69
2020/12/31 01:36:08;;;;;;;1.40;1.20;;;21.60;51.60;;;;;;5093056;28;20542;-69
2020/12/31 01:38:33;;;;;;;1.60;1.20;;;21.60;51.60;;;;;;5093012;28;20461;-69
2020/12/31 01:40:59;;;;;;;1.63;1.23;;;21.60;51.60;;;;;;5092892;28;20411;-69
2020/12/31 01:43:25;;;;;;;1.93;1.43;;;21.50;52.10;;;;;;5092846;28;20535;-70
2020/12/31 01:45:50;;;;;;;1.83;1.50;;;21.60;51.60;;;;;;5093017;28;20311;-69
2020/12/31 01:48:16;;;;;;;1.97;1.40;;;21.50;51.60;;;;;;5092876;28;20640;-69
2020/12/31 01:50:42;;;;;;;1.57;1.23;;;21.50;51.50;;;;;;5092919;28;20177;-69
2020/12/31 01:53:08;;;;;;;1.60;1.13;;;21.50;51.50;;;;;;5092817;28;20170;-69
2020/12/31 01:55:34;;;;;;;1.30;1.20;;;21.60;51.60;;;;;;5092736;28;20499;-69
2020/12/31 01:57:59;;;;;;;2.27;1.17;;;21.60;51.60;;;;;;5092674;28;20514;-69
2020/12/31 02:00:25;;;;;;;2.20;1.40;;;21.50;51.50;;;;;;5092248;28;20543;-69
2020/12/31 02:02:51;;;;;;;1.10;1.00;;;21.60;51.50;;;;;;5096611;28;20242;-70
2020/12/31 02:05:17;;;;;;;1.60;1.33;;;21.60;51.50;;;;;;5096583;28;20227;-69
2020/12/31 02:07:46;;;;;;;1.20;1.03;;;21.60;51.50;;;;;;5096431;28;20429;-69
2020/12/31 02:10:13;;;;;;;1.47;1.20;;;21.60;51.50;;;;;;5096381;28;20412;-69
2020/12/31 02:12:39;;;;;;;1.27;1.13;;;21.60;51.50;;;;;;5096678;28;20438;-68
2020/12/31 02:15:05;;;;;;;1.40;1.10;;;21.60;51.50;;;;;;5096309;28;20447;-69
2020/12/31 02:17:31;;;;;;;2.00;1.30;;;21.60;51.50;;;;;;5096271;28;20469;-69
2020/12/31 02:19:57;;;;;;;1.57;1.20;;;21.60;51.50;;;;;;5096530;28;20902;-69
2020/12/31 02:22:23;;;;;;;1.53;1.27;;;21.60;51.40;;;;;;5096529;28;20253;-69
2020/12/31 02:24:48;;;;;;;1.57;1.37;;;21.60;51.50;;;;;;5096658;28;20178;-69
2020/12/31 02:27:14;;;;;;;1.33;1.17;;;21.60;52.00;;;;;;5096129;28;20432;-69
2020/12/31 02:29:40;;;;;;;1.40;1.23;;;21.60;51.40;;;;;;5096063;28;20208;-69
2020/12/31 02:32:05;;;;;;;1.40;1.27;;;21.60;51.40;;;;;;5094848;28;20181;-69
2020/12/31 02:34:31;;;;;;;1.40;1.13;;;21.60;51.40;;;;;;5095923;28;20188;-70
2020/12/31 02:36:57;;;;;;;1.40;1.10;;;21.60;51.40;;;;;;5095994;28;20323;-69
2020/12/31 02:39:22;;;;;;;1.33;1.00;;;21.60;51.40;;;;;;5096535;28;20173;-69
2020/12/31 02:41:48;;;;;;;1.93;1.47;;;21.60;51.40;;;;;;5095977;28;20174;-69
2020/12/31 02:44:14;;;;;;;1.30;1.10;;;21.60;51.30;;;;;;5096149;28;20170;-69
2020/12/31 02:46:40;;;;;;;1.50;1.27;;;21.60;51.30;;;;;;5095950;28;20189;-69
2020/12/31 02:49:06;;;;;;;1.80;1.30;;;21.60;51.30;;;;;;5095990;28;20890;-69
2020/12/31 02:51:34;;;;;;;1.13;1.00;;;21.60;51.30;;;;;;5095890;28;20431;-69
2020/12/31 02:54:00;;;;;;;1.20;1.10;;;21.60;51.90;;;;;;5095644;28;20403;-69
2020/12/31 02:56:26;;;;;;;1.33;1.20;;;21.60;51.30;;;;;;5095639;28;20455;-70
2020/12/31 02:58:52;;;;;;;1.30;1.07;;;21.60;51.30;;;;;;5095614;28;20203;-70
2020/12/31 03:01:18;;;;;;;1.80;1.60;;;21.60;51.20;;;;;;5095737;28;20680;-70
2020/12/31 03:03:44;;;;;;;1.60;1.00;;;21.60;51.20;;;;;;5095507;28;20841;-69
2020/12/31 03:06:10;;;;;;;3.37;1.40;;;21.60;51.20;;;;;;5095851;28;20481;-69
2020/12/31 03:08:37;;;;;;;1.57;1.10;;;21.60;51.20;;;;;;5095388;28;20231;-69
2020/12/31 03:11:09;;;;;;;1.67;1.30;;;21.60;51.20;;;;;;5095058;28;20411;-69
2020/12/31 03:13:35;;;;;;;1.77;1.20;;;21.60;51.10;;;;;;5095598;28;20906;-69
2020/12/31 03:16:00;;;;;;;1.17;1.07;;;21.60;51.20;;;;;;5094867;28;20459;-69
2020/12/31 03:18:26;;;;;;;2.13;1.00;;;21.60;51.20;;;;;;5095405;28;20173;-70
2020/12/31 03:20:52;;;;;;;2.07;1.17;;;21.60;51.20;;;;;;5095136;28;20166;-69
2020/12/31 03:23:19;;;;;;;1.27;1.00;;;21.60;51.20;;;;;;5095327;28;20177;-69
2020/12/31 03:25:45;;;;;;;1.60;1.20;;;21.60;51.20;;;;;;5095320;28;20549;-69
2020/12/31 03:28:13;;;;;;;1.30;1.13;;;21.60;51.10;;;;;;5094765;28;20550;-70
2020/12/31 03:30:39;;;;;;;1.30;1.20;;;21.60;51.20;;;;;;5094954;28;20784;-70
2020/12/31 03:33:05;;;;;;;1.77;1.50;;;21.60;51.20;;;;;;5095687;28;20768;-69
2020/12/31 03:35:33;;;;;;;1.40;1.20;;;21.60;51.20;;;;;;5094775;28;20451;-69
2020/12/31 03:37:59;;;;;;;1.80;1.10;;;21.60;51.20;;;;;;5094736;28;20239;-70
2020/12/31 03:40:24;;;;;;;1.73;1.10;;;21.60;51.20;;;;;;5095035;28;20797;-69
2020/12/31 03:42:50;;;;;;;2.13;1.17;;;21.60;51.20;;;;;;5094685;28;20185;-70
2020/12/31 03:45:16;;;;;;;1.47;1.00;;;21.60;51.30;;;;;;5094680;28;20189;-69
2020/12/31 03:47:42;;;;;;;1.20;0.90;;;21.50;51.20;;;;;;5094542;28;20196;-70
2020/12/31 03:50:07;;;;;;;1.40;1.17;;;21.50;51.20;;;;;;5094532;28;20213;-69
2020/12/31 03:52:33;;;;;;;1.33;1.00;;;21.50;51.20;;;;;;5093468;28;20953;-70
2020/12/31 03:54:59;;;;;;;1.10;0.80;;;21.50;51.20;;;;;;5094558;28;20193;-70
2020/12/31 03:57:24;;;;;;;0.93;0.80;;;21.50;51.20;;;;;;5094292;28;20664;-70
2020/12/31 03:59:50;;;;;;;1.40;1.00;;;21.50;51.30;;;;;;5094631;28;20172;-70
2020/12/31 04:02:16;;;;;;;1.30;1.10;;;21.50;51.30;;;;;;5094260;28;20173;-69
2020/12/31 04:04:42;;;;;;;1.10;0.90;;;21.50;51.30;;;;;;5094297;28;20170;-69
2020/12/31 04:07:08;;;;;;;1.00;0.83;;;21.50;51.30;;;;;;5095044;28;20646;-70
2020/12/31 04:09:34;;;;;;;1.50;1.10;;;21.50;51.30;;;;;;5094431;28;20407;-69
2020/12/31 04:12:00;;;;;;;1.27;1.10;;;21.50;51.30;;;;;;5092826;28;20227;-69
2020/12/31 04:14:26;;;;;;;2.00;1.10;;;21.50;51.30;;;;;;5094272;28;20403;-69
2020/12/31 04:16:51;;;;;;;1.43;1.17;;;21.50;51.90;;;;;;5093960;28;20205;-69
2020/12/31 04:19:17;;;;;;;1.03;0.87;;;21.50;51.30;;;;;;5093969;28;20215;-70
2020/12/31 04:21:43;;;;;;;1.60;1.10;;;21.50;51.30;;;;;;5094237;28;20178;-69
2020/12/31 04:24:08;;;;;;;1.37;1.10;;;21.50;51.30;;;;;;5093314;28;20454;-69
2020/12/31 04:26:34;;;;;;;1.20;1.10;;;21.50;51.30;;;;;;5093827;28;20606;-69
2020/12/31 04:29:00;;;;;;;1.27;1.10;;;21.50;51.40;;;;;;5093647;28;20195;-69
2020/12/31 04:31:25;;;;;;;1.50;1.40;;;21.40;51.20;;;;;;5093827;28;20564;-69
2020/12/31 04:33:51;;;;;;;1.50;1.00;;;21.40;51.20;;;;;;5093799;28;20177;-69
2020/12/31 04:36:17;;;;;;;1.70;1.30;;;21.50;51.30;;;;;;5093591;28;20201;-69
2020/12/31 04:38:43;;;;;;;1.40;1.00;;;21.50;51.30;;;;;;5093975;28;20174;-69
2020/12/31 04:41:11;;;;;;;1.73;1.20;;;21.50;51.20;;;;;;5093931;28;20435;-69
2020/12/31 04:43:37;;;;;;;1.80;1.33;;;21.50;51.20;;;;;;5093623;28;20253;-69
2020/12/31 04:46:05;;;;;;;1.40;1.00;;;21.50;51.20;;;;;;5093476;28;20507;-69
2020/12/31 04:48:38;;;;;;;1.33;1.10;;;21.50;51.20;;;;;;5093529;28;20178;-70
2020/12/31 04:51:07;;;;;;;1.10;1.00;;;21.40;51.20;;;;;;5093606;28;20392;-69
2020/12/31 04:53:33;;;;;;;1.33;0.90;;;21.50;51.20;;;;;;5093682;28;20960;-69
2020/12/31 04:56:01;;;;;;;1.30;1.20;;;21.50;51.20;;;;;;5093248;28;20458;-69
2020/12/31 04:58:27;;;;;;;1.50;1.23;;;21.50;51.20;;;;;;5093607;28;20407;-70
2020/12/31 05:00:53;;;;;;;1.20;1.00;;;21.40;51.10;;;;;;5092006;28;20415;-69
2020/12/31 05:03:18;;;;;;;1.17;1.07;;;21.50;51.20;;;;;;5093305;28;20166;-69
2020/12/31 05:05:45;;;;;;;1.53;1.10;;;21.40;51.10;;;;;;5093258;28;20218;-69
2020/12/31 05:08:11;;;;;;;1.23;1.07;;;21.50;51.20;;;;;;5093171;28;20198;-69
2020/12/31 05:10:38;;;;;;;1.10;0.90;;;21.50;51.20;;;;;;5093245;28;20843;-69
2020/12/31 05:13:06;;;;;;;1.20;1.00;;;21.50;51.20;;;;;;5093208;28;20424;-69
2020/12/31 05:15:33;;;;;;;1.20;1.00;;;21.50;51.20;;;;;;5093078;28;20459;-69
2020/12/31 05:18:14;;;;;;;1.90;1.20;;;21.40;51.10;;;;;;5093114;28;20420;-69
2020/12/31 05:20:40;;;;;;;1.27;1.10;;;21.50;51.20;;;;;;5093430;28;20743;-69
2020/12/31 05:23:15;;;;;;;1.47;1.17;;;21.40;51.10;;;;;;5093104;28;20407;-69
2020/12/31 05:25:41;;;;;;;1.30;1.10;;;21.50;51.20;;;;;;5093308;28;20225;-69
2020/12/31 05:28:42;;;;;;;1.30;1.03;;;21.50;51.10;;;;;;5092815;28;20549;-69
2020/12/31 05:31:10;;;;;;;1.30;1.20;;;21.50;51.10;;;;;;5049514;28;20272;-69
2020/12/31 05:33:39;;;;;;;1.17;1.03;;;21.50;51.10;;;;;;5092910;28;20414;-69
2020/12/31 05:36:18;;;;;;;1.10;1.00;;;21.50;51.10;;;;;;5096815;28;20439;-69
2020/12/31 05:38:47;;;;;;;1.10;1.00;;;21.50;51.10;;;;;;5095809;28;20419;-69
2020/12/31 05:41:12;;;;;;;1.57;1.10;;;21.50;51.10;;;;;;5097320;28;20534;-69
2020/12/31 05:43:41;;;;;;;1.30;1.17;;;21.50;51.00;;;;;;5096992;28;20436;-69
2020/12/31 05:46:11;;;;;;;1.43;1.30;;;21.50;51.00;;;;;;5097130;28;20189;-69
2020/12/31 05:48:38;;;;;;;1.47;0.90;;;21.50;51.00;;;;;;5096885;28;20412;-69
2020/12/31 05:51:23;;;;;;;1.30;1.20;;;21.50;50.90;;;;;;5097172;28;20766;-69
2020/12/31 05:53:49;;;;;;;1.13;1.03;;;21.50;50.90;;;;;;5097126;28;20411;-69
2020/12/31 05:56:19;;;;;;;1.43;1.10;;;21.50;50.90;;;;;;5096880;28;20463;-69
2020/12/31 05:58:48;;;;;;;1.40;1.20;;;21.50;50.90;;;;;;5096968;28;20408;-69
2020/12/31 06:01:14;;;;;;;1.43;1.07;;;21.50;50.90;;;;;;5096944;28;20732;-69
2020/12/31 06:03:51;;;;;;;1.40;1.10;;;21.50;50.90;;;;;;5096838;28;20407;-69
2020/12/31 06:06:20;;;;;;;1.27;0.93;;;21.50;51.00;;;;;;5096736;28;20427;-69
2020/12/31 06:08:57;;;;;;;1.30;1.10;;;21.50;51.00;;;;;;5096785;28;20414;-70
2020/12/31 06:11:34;;;;;;;1.30;1.10;;;21.60;51.10;;;;;;5096807;28;20419;-69
2020/12/31 06:14:03;;;;;;;1.43;1.23;;;21.50;51.10;;;;;;5096781;28;20917;-69
2020/12/31 06:16:37;;;;;;;1.53;1.27;;;21.60;51.20;;;;;;5096563;28;20869;-69
2020/12/31 06:19:24;;;;;;;1.73;1.20;;;21.60;51.20;;;;;;5096424;28;20870;-70
2020/12/31 06:22:20;;;;;;;1.50;1.20;;;21.50;51.20;;;;;;5096313;28;20384;-68
2020/12/31 06:24:45;;;;;;;2.13;1.30;;;21.60;51.20;;;;;;5096136;28;20485;-69
2020/12/31 06:27:13;;;;;;;1.20;0.90;;;21.60;51.30;;;;;;5096424;28;20427;-70
2020/12/31 06:29:49;;;;;;;1.10;1.00;;;21.60;51.20;;;;;;5096011;28;20239;-70
2020/12/31 06:32:34;;;;;;;1.20;0.97;;;21.60;51.20;;;;;;5096134;28;20431;-69
2020/12/31 06:35:06;;;;;;;1.10;0.90;;;21.60;51.20;;;;;;5095931;28;20446;-69
2020/12/31 06:37:32;;;;;;;1.50;1.10;;;21.60;51.20;;;;;;5095969;28;20505;-69
2020/12/31 06:40:23;;;;;;;0.93;0.80;;;21.60;51.20;;;;;;5095977;28;20403;-69
2020/12/31 06:43:11;;;;;;;1.70;1.30;;;21.60;51.10;;;;;;5095905;28;20166;-70
2020/12/31 06:45:48;;;;;;;1.17;0.90;;;21.60;51.20;;;;;;5095928;28;20412;-69
2020/12/31 06:48:26;;;;;;;1.93;0.97;;;21.50;51.10;;;;;;5095593;28;20411;-70
2020/12/31 06:51:04;;;;;;;1.10;1.00;;;21.60;51.20;;;;;;5095707;28;20407;-70
2020/12/31 06:53:45;;;;;;;1.40;1.03;;;21.60;51.20;;;;;;5095951;28;20426;-70
2020/12/31 06:56:13;;;;;;;1.07;0.80;;;21.60;51.30;;;;;;5095539;28;20874;-70
2020/12/31 06:58:40;;;;;;;1.17;0.90;;;21.50;51.20;;;;;;5094279;28;20443;-70
2020/12/31 07:01:28;;;;;;;1.00;0.83;;;21.60;51.30;;;;;;5095531;28;20408;-69
2020/12/31 07:03:58;;;;;;;0.90;0.70;;;21.60;51.30;;;;;;5095205;28;20432;-69
2020/12/31 07:06:29;;;;;;;1.20;0.90;;;21.60;51.40;;;;;;5095344;28;20488;-69
2020/12/31 07:09:25;;;;;;;1.33;1.00;;;21.60;51.40;;;;;;5095710;28;20388;-70
2020/12/31 07:12:00;;;;;;;1.10;1.00;;;21.60;51.40;;;;;;5095397;28;20419;-70
2020/12/31 07:14:28;;;;;;;1.60;1.00;;;21.60;51.40;;;;;;5095287;28;20483;-69
2020/12/31 07:17:02;;;;;;;1.10;1.00;;;21.60;51.50;;;;;;5095217;28;20466;-70
2020/12/31 07:19:27;;;;;;;2.47;1.47;;;21.60;51.50;;;;;;5095432;28;20479;-70
2020/12/31 07:21:53;;;;;;;1.27;0.80;;;21.60;51.50;;;;;;5095086;28;20408;-69
2020/12/31 07:24:29;;;;;;;1.30;0.83;;;21.60;51.50;;;;;;5095101;28;20241;-70
2020/12/31 07:26:58;;;;;;;1.50;1.00;;;21.60;51.50;;;;;;5095141;28;20684;-69
2020/12/31 07:29:33;;;;;;;1.00;0.70;;;21.60;51.50;;;;;;5094965;28;20798;-70
2020/12/31 07:32:01;;;;;;;1.10;0.80;;;21.60;51.50;;;;;;5094892;28;20418;-69
2020/12/31 07:34:31;;;;;;;0.90;0.70;;;21.60;51.50;;;;;;5094730;28;20949;-70
2020/12/31 07:36:59;;;;;;;1.03;0.83;;;21.60;51.50;;;;;;5094639;28;20458;-70
2020/12/31 07:39:24;;;;;;;1.20;0.80;;;21.60;52.10;;;;;;5095533;28;20403;-69
2020/12/31 07:41:50;;;;;;;1.83;0.90;;;21.60;51.50;;;;;;5094990;28;20951;-69
2020/12/31 07:44:16;;;;;;;1.10;0.90;;;21.60;51.50;;;;;;5094699;28;20246;-70
2020/12/31 07:46:43;;;;;;;0.90;0.80;;;21.70;51.60;;;;;;5094595;28;20559;-69
2020/12/31 07:49:12;;;;;;;0.90;0.80;;;21.70;51.60;;;;;;5094866;28;20408;-69
2020/12/31 07:51:45;;;;;;;1.57;1.27;;;21.70;51.60;;;;;;5093564;28;20776;-69
2020/12/31 07:54:10;;;;;;;1.60;1.20;;;21.70;51.60;;;;;;5094780;28;20395;-70
2020/12/31 07:56:37;;;;;;;1.20;0.87;;;21.70;51.60;;;;;;5094275;28;20821;-69
2020/12/31 07:59:04;;;;;;;1.10;0.80;;;21.60;52.10;;;;;;5093464;28;20169;-69
2020/12/31 08:01:29;;;;;;;1.00;0.87;;;21.70;51.50;;;;;;5094302;28;20495;-70
2020/12/31 08:04:08;;;;;;;1.20;1.00;;;21.60;51.40;;;;;;5094921;28;20495;-69
2020/12/31 08:06:34;;;;;;;1.00;0.87;;;21.70;51.40;;;;;;5092975;28;20221;-69
2020/12/31 08:08:59;;;;;;;1.73;0.93;;;21.60;51.40;;;;;;5094157;28;20763;-68
2020/12/31 08:11:26;;;;;;;1.50;1.07;;;21.70;51.40;;;;;;5094223;28;20177;-69
2020/12/31 08:14:01;;;;;;;1.50;1.20;;;21.60;51.30;;;;;;5094428;28;20177;-69
2020/12/31 08:16:27;;;;;;;1.00;0.90;;;21.70;51.30;;;;;;5093965;28;20876;-70
2020/12/31 08:18:53;;;;;;;1.20;1.07;;;21.60;51.20;;;;;;5094044;28;20408;-69
2020/12/31 08:21:20;;;;;;;1.57;1.40;;;21.60;51.10;;;;;;5094340;28;20166;-69
2020/12/31 08:23:51;;;;;;;1.30;1.20;;;21.60;51.10;;;;;;5093940;28;20400;-69
2020/12/31 08:26:19;;;;;;;1.70;1.20;;;21.60;51.00;;;;;;5094133;28;20440;-69
2020/12/31 08:28:46;;;;;;;3.07;1.27;;;21.60;51.00;;;;;;5093818;28;20673;-69
2020/12/31 08:31:14;;;;;;;1.60;1.00;;;21.60;51.00;;;;;;5094173;28;20407;-69
2020/12/31 08:33:42;;;;;;;1.20;1.10;;;21.60;51.10;;;;;;5093796;28;20404;-69
2020/12/31 08:36:08;;;;;;;4.80;1.00;;;21.60;51.10;;;;;;5093891;28;20799;-69
2020/12/31 08:38:37;;;;;;;2.37;1.53;;;21.60;51.10;;;;;;5092440;28;20444;-69
2020/12/31 08:41:06;;;;;;;2.70;1.53;;;21.60;51.20;;;;;;5093913;28;20428;-69
2020/12/31 08:43:37;;;;;;;4.90;1.70;;;21.60;51.20;;;;;;5094163;28;20400;-68
2020/12/31 08:46:18;;;;;;;4.07;2.17;;;21.60;51.30;;;;;;5093576;28;20408;-69
2020/12/31 08:48:52;;;;;;;3.17;1.70;;;21.60;51.30;;;;;;5093835;28;20392;-69
2020/12/31 08:51:19;;;;;;;3.33;1.93;;;21.60;51.40;;;;;;5093787;28;20905;-69
2020/12/31 08:53:55;;;;;;;5.13;1.90;;;21.60;51.40;;;;;;5093436;28;20986;-69
2020/12/31 08:56:24;;;;;;;6.63;3.90;;;21.60;51.40;;;;;;5093502;28;20459;-68
2020/12/31 08:58:50;;;;;;;5.33;2.30;;;21.60;51.40;;;;;;5093451;28;20392;-68
2020/12/31 09:01:26;;;;;;;5.10;2.63;;;21.60;51.50;;;;;;5093830;28;20388;-68
2020/12/31 09:04:13;;;;;;;5.50;2.33;;;21.60;51.40;;;;;;5093263;28;20230;-69
2020/12/31 09:06:43;;;;;;;4.17;2.40;;;21.60;51.40;;;;;;5093194;28;20428;-69
2020/12/31 09:09:18;;;;;;;3.47;2.40;;;21.60;51.50;;;;;;5093481;28;20455;-69
2020/12/31 09:12:10;;;;;;;8.47;2.47;;;21.60;51.60;;;;;;5093033;28;20494;-69
2020/12/31 09:14:37;;;;;;;3.63;2.30;;;21.70;51.60;;;;;;5090366;28;21021;-68
2020/12/31 09:17:22;;;;;;;5.70;2.53;;;21.60;51.60;;;;;;5093143;28;20570;-69
2020/12/31 09:19:51;;;;;;;3.70;2.60;;;21.70;51.60;;;;;;5092980;28;20408;-69
2020/12/31 09:22:17;;;;;;;9.50;3.47;;;21.70;51.50;;;;;;5093394;28;20866;-72
2020/12/31 09:24:43;;;;;;;5.93;3.87;;;21.60;51.20;;;;;;5092995;28;20403;-68
2020/12/31 09:27:09;;;;;;;5.67;3.63;;;21.60;51.00;;;;;;5093130;28;20595;-68
2020/12/31 09:29:34;;;;;;;10.30;2.50;;;21.60;51.00;;;;;;5091205;28;20590;-68
2020/12/31 09:32:00;;;;;;;7.33;2.80;;;21.60;50.80;;;;;;5091586;28;20256;-67
2020/12/31 09:34:26;;;;;;;4.27;2.50;;;21.60;50.70;;;;;;5092249;28;20181;-68
2020/12/31 09:36:59;;;;;;;7.70;2.57;;;21.60;50.70;;;;;;5090971;28;20219;-68
2020/12/31 09:39:24;;;;;;;3.80;2.90;;;21.60;50.70;;;;;;5092599;28;20449;-68
2020/12/31 09:41:50;;;;;;;6.20;2.47;;;21.60;50.80;;;;;;5091785;28;20891;-68
2020/12/31 09:44:15;;;;;;;5.70;2.70;;;21.60;50.80;;;;;;5092510;28;20235;-68
2020/12/31 09:46:41;;;;;;;5.03;2.33;;;21.60;50.80;;;;;;5092669;28;20213;-68
2020/12/31 09:49:07;;;;;;;7.93;2.53;;;21.60;50.80;;;;;;5092872;28;20219;-67
2020/12/31 09:51:33;;;;;;;4.17;2.70;;;21.60;50.80;;;;;;5092807;28;20189;-68
2020/12/31 09:53:59;;;;;;;5.60;2.63;;;21.60;50.90;;;;;;5092817;28;20588;-68
2020/12/31 09:56:29;;;;;;;7.33;2.80;;;21.60;50.90;;;;;;5092519;28;20501;-68
2020/12/31 09:58:55;;;;;;;5.23;2.70;;;21.60;50.90;;;;;;5092957;28;20403;-68
2020/12/31 10:01:22;;;;;;;6.10;3.03;;;21.60;50.90;;;;;;5092761;28;20815;-68
2020/12/31 10:03:48;;;;;;;4.87;2.27;;;21.60;51.00;;;;;;5092590;28;20408;-68
2020/12/31 10:06:14;;;;;;;7.03;2.73;;;21.60;51.00;;;;;;5092851;28;20438;-67
2020/12/31 10:08:43;;;;;;;8.03;2.70;;;21.60;51.00;;;;;;5092978;28;20408;-68
2020/12/31 10:11:08;;;;;;;4.60;2.87;;;21.60;51.00;;;;;;5092634;28;20177;-68
2020/12/31 10:13:35;;;;;;;7.30;2.90;;;21.60;51.00;;;;;;5092761;28;20422;-68
2020/12/31 10:16:03;;;;;;;7.83;3.30;;;21.60;50.90;;;;;;5092489;28;20243;-67
2020/12/31 10:18:30;;;;;;;7.00;3.40;;;21.60;51.00;;;;;;5092624;28;20464;-68
2020/12/31 10:20:56;;;;;;;5.80;3.40;;;21.60;51.00;;;;;;5092654;28;20411;-67
2020/12/31 10:23:22;;;;;;;5.90;2.80;;;21.50;51.00;;;;;;5096569;28;20400;-67
2020/12/31 10:25:48;;;;;;;9.47;2.93;;;21.50;51.00;;;;;;5096261;28;20223;-68
2020/12/31 10:28:14;;;;;;;10.27;3.00;;;21.50;51.00;;;;;;5096122;28;20448;-68
2020/12/31 10:30:40;;;;;;;6.87;2.70;;;21.50;51.00;;;;;;5096376;28;20418;-68
2020/12/31 10:33:05;;;;;;;5.87;2.57;;;21.60;51.10;;;;;;5096094;28;20667;-68
2020/12/31 10:35:31;;;;;;;6.60;3.30;;;21.50;51.00;;;;;;5096017;28;20189;-68
2020/12/31 10:37:57;;;;;;;4.40;2.87;;;21.60;51.10;;;;;;5094685;28;20246;-68
2020/12/31 10:40:22;;;;;;;8.80;2.60;;;21.60;51.10;;;;;;5096245;28;20166;-67
2020/12/31 10:42:48;;;;;;;5.27;2.90;;;21.60;51.70;;;;;;5095883;28;20656;-68
2020/12/31 10:45:13;;;;;;;5.93;3.07;;;21.60;51.10;;;;;;5095844;28;20185;-68
2020/12/31 10:47:39;;;;;;;6.90;3.40;;;21.60;51.10;;;;;;5096054;28;20727;-68
2020/12/31 10:50:04;;;;;;;7.77;2.80;;;21.60;51.10;;;;;;5094709;28;20230;-68
2020/12/31 10:52:30;;;;;;;4.53;2.50;;;21.60;51.10;;;;;;5095735;28;20540;-67
2020/12/31 10:54:56;;;;;;;4.40;2.80;;;21.60;51.10;;;;;;5095643;28;20235;-68
2020/12/31 10:57:21;;;;;;;5.27;2.63;;;21.60;51.10;;;;;;5095774;28;20597;-68
2020/12/31 10:59:47;;;;;;;6.90;3.10;;;21.60;51.20;;;;;;5095571;28;20168;-68
2020/12/31 11:02:12;;;;;;;6.97;3.27;;;21.60;51.20;;;;;;5095549;28;20174;-66
2020/12/31 11:04:38;;;;;;;6.73;3.00;;;21.70;51.20;;;;;;5095542;28;20226;-68
2020/12/31 11:07:04;;;;;;;8.47;3.43;;;21.70;51.20;;;;;;5095428;28;20567;-67
2020/12/31 11:09:29;;;;;;;4.63;3.07;;;21.70;51.20;;;;;;5095402;28;20176;-68
2020/12/31 11:11:55;;;;;;;6.03;4.23;;;21.70;51.20;;;;;;5095392;28;20230;-67
2020/12/31 11:14:21;;;;;;;8.33;3.50;;;21.70;51.20;;;;;;5095328;28;20256;-68
2020/12/31 11:16:48;;;;;;;8.10;2.90;;;21.70;51.20;;;;;;5093887;28;20554;-68
2020/12/31 11:19:13;;;;;;;4.77;2.70;;;21.80;51.30;;;;;;5095544;28;20203;-67
2020/12/31 11:21:39;;;;;;;6.20;3.33;;;21.80;51.30;;;;;;5094933;28;20407;-67
2020/12/31 11:24:05;;;;;;;6.90;3.43;;;21.80;51.30;;;;;;5095100;28;20544;-68
2020/12/31 11:26:30;;;;;;;8.43;3.40;;;21.80;51.30;;;;;;5095241;28;20198;-68
2020/12/31 11:28:56;;;;;;;6.43;2.87;;;21.80;51.30;;;;;;5094914;28;20196;-68
2020/12/31 11:31:26;;;;;;;7.13;2.80;;;21.80;51.30;;;;;;5094972;28;20686;-68
2020/12/31 11:33:52;;;;;;;4.87;2.40;;;21.80;51.20;;;;;;5094725;28;20227;-68
2020/12/31 11:36:20;;;;;;;4.70;2.90;;;21.80;51.30;;;;;;5094576;28;20467;-68
2020/12/31 11:38:46;;;;;;;7.40;2.97;;;21.80;51.30;;;;;;5095074;28;20453;-68
2020/12/31 11:41:12;;;;;;;3.90;2.70;;;21.80;51.30;;;;;;5095082;28;20820;-67
2020/12/31 11:43:38;;;;;;;6.33;3.23;;;21.80;51.20;;;;;;5094742;28;20403;-68
2020/12/31 11:46:07;;;;;;;3.40;2.47;;;21.80;51.20;;;;;;5094680;28;20176;-68
2020/12/31 11:48:33;;;;;;;3.97;2.47;;;21.90;51.30;;;;;;5094863;28;20177;-68
2020/12/31 11:51:00;;;;;;;5.43;2.73;;;21.80;51.20;;;;;;5094557;28;20404;-68
2020/12/31 11:53:27;;;;;;;5.53;2.60;;;21.80;51.20;;;;;;5094579;28;20836;-68
2020/12/31 11:55:53;;;;;;;7.33;2.83;;;21.80;51.20;;;;;;5094376;28;20487;-67
2020/12/31 11:58:18;;;;;;;5.40;3.03;;;21.90;51.30;;;;;;5094579;28;20896;-68
2020/12/31 12:00:45;;;;;;;4.90;2.33;;;21.90;51.30;;;;;;5094650;28;20211;-68
2020/12/31 12:03:11;;;;;;;6.10;3.27;;;21.80;51.20;;;;;;5093135;28;20166;-68
2020/12/31 12:05:36;;;;;;;5.23;3.13;;;21.80;51.30;;;;;;5094350;28;20408;-68
2020/12/31 12:08:06;;;;;;;5.17;2.97;;;21.80;51.30;;;;;;5093944;28;20427;-68
2020/12/31 12:10:32;;;;;;;6.03;2.80;;;21.80;51.30;;;;;;5092869;28;20226;-68
2020/12/31 12:12:58;;;;;;;4.40;2.07;;;21.90;51.40;;;;;;5094190;28;20404;-68
2020/12/31 12:15:24;;;;;;;4.37;2.50;;;21.80;51.30;;;;;;5094070;28;20455;-68
2020/12/31 12:17:51;;;;;;;4.17;2.33;;;21.80;51.30;;;;;;5093973;28;20195;-67
2020/12/31 12:20:17;;;;;;;3.87;2.33;;;21.80;51.30;;;;;;5094296;28;20822;-66
2020/12/31 12:22:43;;;;;;;4.60;3.30;;;21.80;51.30;;;;;;5094012;28;20495;-68
2020/12/31 12:25:09;;;;;;;4.67;2.33;;;21.80;51.30;;;;;;5093967;28;20443;-68
2020/12/31 12:27:35;;;;;;;4.27;2.30;;;21.80;51.30;;;;;;5093978;28;20877;-68
2020/12/31 12:30:07;;;;;;;4.03;2.77;;;21.80;51.30;;;;;;5093951;28;20236;-68
2020/12/31 12:32:33;;;;;;;4.83;3.23;;;21.80;51.30;;;;;;5093831;28;20392;-68
2020/12/31 12:34:58;;;;;;;5.87;1.97;;;21.90;51.40;;;;;;5093729;28;20894;-68
2020/12/31 12:37:24;;;;;;;7.17;3.03;;;21.90;51.40;;;;;;5093816;28;20274;-68
2020/12/31 12:39:50;;;;;;;3.90;2.20;;;21.80;51.20;;;;;;5093750;28;20548;-68
2020/12/31 12:42:15;;;;;;;3.63;2.10;;;21.90;51.30;;;;;;5093908;28;20190;-68
2020/12/31 12:44:41;;;;;;;6.93;3.37;;;21.80;51.20;;;;;;5091874;28;20177;-67
2020/12/31 12:47:06;;;;;;;3.60;1.97;;;21.80;51.20;;;;;;5093488;28;20192;-68
2020/12/31 12:49:32;;;;;;;5.40;2.27;;;21.80;51.10;;;;;;5093803;28;20276;-68
2020/12/31 12:51:58;;;;;;;3.83;2.30;;;21.80;51.10;;;;;;5093832;28;20183;-68